Time;durP1;ratioP1;P1;durP2;ratioP2;P2;SDS_P1;SDS_P2;PMS_P1;PMS_P2;Temp;Humidity;BMP_temperature;BMP_pressure;BME280_temperature;BME280_humidity;BME280_pressure;Samples;Min_cycle;Max_cycle;Signal;HPM_P1;HPM_P2
2022/07/16 00:03:17;;;;;;;11.15;5.68;;;16.40;99.90;;;;;;5069380;28;20090;-68
2022/07/16 00:05:43;;;;;;;11.85;6.03;;;16.40;99.90;;;;;;5054731;28;20033;-68
2022/07/16 00:08:08;;;;;;;15.68;5.68;;;16.40;99.90;;;;;;5055261;28;20036;-66
2022/07/16 00:10:34;;;;;;;12.57;5.85;;;16.40;99.90;;;;;;5054565;28;20372;-67
2022/07/16 00:13:02;;;;;;;13.00;6.35;;;16.40;99.90;;;;;;5054559;28;20132;-67
2022/07/16 00:15:29;;;;;;;13.60;6.10;;;16.40;99.90;;;;;;5058388;28;20143;-66
2022/07/16 00:19:15;;;;;;;12.20;5.90;;;16.40;99.90;;;;;;5055167;28;20048;-67
2022/07/16 00:20:40;;;;;;;14.07;5.93;;;16.30;99.90;;;;;;5054141;28;20037;-67
2022/07/16 00:23:06;;;;;;;14.32;5.57;;;16.30;99.90;;;;;;5053289;28;20045;-66
2022/07/16 00:25:33;;;;;;;13.60;6.40;;;16.20;99.90;;;;;;5055511;28;20036;-66
2022/07/16 00:27:59;;;;;;;17.67;6.25;;;16.20;99.90;;;;;;5060242;28;20048;-66
2022/07/16 00:30:25;;;;;;;12.75;6.43;;;16.20;99.90;;;;;;5056142;28;20514;-67
2022/07/16 00:32:50;;;;;;;11.05;5.95;;;16.20;99.90;;;;;;5056395;28;20036;-66
2022/07/16 00:35:16;;;;;;;11.10;5.88;;;16.20;99.90;;;;;;5056189;28;20088;-66
2022/07/16 00:37:42;;;;;;;17.23;6.30;;;16.20;99.90;;;;;;5057167;28;20032;-68
2022/07/16 00:40:07;;;;;;;13.40;5.88;;;16.20;99.90;;;;;;5056436;28;20105;-67
2022/07/16 00:42:33;;;;;;;22.48;6.60;;;16.10;99.90;;;;;;5069948;28;20515;-66
2022/07/16 00:44:59;;;;;;;15.70;6.43;;;16.20;99.90;;;;;;5057143;28;22403;-67
2022/07/16 00:47:24;;;;;;;19.23;6.53;;;16.10;99.90;;;;;;5056900;28;20036;-66
2022/07/16 00:49:50;;;;;;;14.23;6.43;;;16.10;99.90;;;;;;5060096;28;20122;-66
2022/07/16 00:52:15;;;;;;;14.70;6.60;;;16.20;99.90;;;;;;5055095;28;20075;-65
2022/07/16 00:54:41;;;;;;;11.18;6.43;;;16.10;99.90;;;;;;5059397;28;20231;-66
2022/07/16 00:57:07;;;;;;;13.65;6.32;;;16.10;99.90;;;;;;5051090;28;20043;-67
2022/07/16 00:59:32;;;;;;;14.90;6.32;;;16.10;99.90;;;;;;5057232;28;20033;-66
2022/07/16 01:01:58;;;;;;;16.30;7.07;;;16.10;99.90;;;;;;5055238;28;20475;-66
2022/07/16 01:04:24;;;;;;;17.63;6.53;;;16.10;99.90;;;;;;5058043;28;20037;-67
2022/07/16 01:06:50;;;;;;;11.90;6.13;;;16.10;99.90;;;;;;5056440;28;20036;-66
2022/07/16 01:09:17;;;;;;;12.45;5.97;;;16.10;99.90;;;;;;5056093;28;20051;-66
2022/07/16 01:11:44;;;;;;;13.73;6.60;;;16.10;99.90;;;;;;5054360;28;20037;-67
2022/07/16 01:14:10;;;;;;;11.10;6.20;;;16.10;99.90;;;;;;5065101;28;20041;-65
2022/07/16 01:16:36;;;;;;;17.45;6.22;;;16.10;99.90;;;;;;5054297;28;20143;-67
2022/07/16 01:19:02;;;;;;;16.65;6.40;;;16.10;99.90;;;;;;5063186;28;20119;-67
2022/07/16 01:21:28;;;;;;;15.65;6.53;;;16.10;99.90;;;;;;5054728;28;20044;-66
2022/07/16 01:23:53;;;;;;;11.13;5.75;;;16.20;99.90;;;;;;5053267;28;20294;-67
2022/07/16 01:26:21;;;;;;;16.83;7.03;;;16.20;99.90;;;;;;5071586;28;20040;-66
2022/07/16 01:28:46;;;;;;;17.88;7.30;;;16.20;99.90;;;;;;5060343;28;20491;-66
2022/07/16 01:31:12;;;;;;;18.25;7.75;;;16.30;99.90;;;;;;5059912;28;20040;-67
2022/07/16 01:33:40;;;;;;;19.08;8.38;;;16.20;99.90;;;;;;5059052;28;20395;-67
2022/07/16 01:36:12;;;;;;;19.70;8.32;;;16.10;99.90;;;;;;5052495;28;20403;-66
2022/07/16 01:38:40;;;;;;;26.77;9.68;;;16.10;99.90;;;;;;5054599;28;20094;-67
2022/07/16 01:41:06;;;;;;;21.02;9.68;;;15.90;99.90;;;;;;5072634;28;20124;-66
2022/07/16 01:43:31;;;;;;;20.30;9.15;;;15.90;99.90;;;;;;5055988;28;20450;-66
2022/07/16 01:45:58;;;;;;;22.83;9.27;;;15.90;99.90;;;;;;5053304;28;20038;-66
2022/07/16 01:48:24;;;;;;;22.33;9.55;;;15.90;99.90;;;;;;5055125;28;20048;-67
2022/07/16 01:50:50;;;;;;;20.45;10.30;;;15.80;99.90;;;;;;5058878;28;20115;-68
2022/07/16 01:53:16;;;;;;;28.65;10.13;;;15.80;99.90;;;;;;5056201;28;20033;-66
2022/07/16 01:55:42;;;;;;;23.05;10.70;;;15.70;99.90;;;;;;5060201;28;20043;-67
2022/07/16 01:58:10;;;;;;;27.70;11.93;;;15.70;99.90;;;;;;5054376;28;20068;-65
2022/07/16 02:00:38;;;;;;;27.15;11.98;;;15.90;99.90;;;;;;5061584;28;20051;-66
2022/07/16 02:03:04;;;;;;;27.58;11.13;;;15.90;99.90;;;;;;5057742;28;20043;-66
2022/07/16 02:05:30;;;;;;;22.10;10.15;;;15.90;99.90;;;;;;5060621;28;20040;-65
2022/07/16 02:07:56;;;;;;;23.02;9.65;;;15.80;99.90;;;;;;5061589;28;20048;-65
2022/07/16 02:10:21;;;;;;;21.98;8.65;;;15.80;99.90;;;;;;5057732;28;20048;-66
2022/07/16 02:12:47;;;;;;;18.77;7.38;;;15.90;99.90;;;;;;5062703;28;20033;-67
2022/07/16 02:15:13;;;;;;;12.52;5.25;;;15.90;99.90;;;;;;5060103;28;20407;-66
2022/07/16 02:17:39;;;;;;;17.20;5.05;;;15.90;99.90;;;;;;5055361;28;20120;-65
2022/07/16 02:20:07;;;;;;;19.02;5.05;;;16.00;99.90;;;;;;5057603;28;20048;-64
2022/07/16 02:22:33;;;;;;;15.75;4.55;;;16.00;99.90;;;;;;5058141;28;20047;-65
2022/07/16 02:24:59;;;;;;;13.50;4.50;;;16.00;99.90;;;;;;5061979;28;20036;-64
2022/07/16 02:27:24;;;;;;;13.00;4.25;;;15.90;99.90;;;;;;5061485;28;20041;-64
2022/07/16 02:29:50;;;;;;;9.25;3.92;;;16.00;99.90;;;;;;5060372;28;20127;-66
2022/07/16 02:32:16;;;;;;;14.02;4.20;;;15.90;99.90;;;;;;5068054;28;20094;-65
2022/07/16 02:34:42;;;;;;;13.43;5.05;;;16.00;99.90;;;;;;5047021;28;20036;-64
2022/07/16 02:37:08;;;;;;;12.90;4.13;;;15.90;99.90;;;;;;5057998;28;20044;-65
2022/07/16 02:39:33;;;;;;;14.13;4.00;;;15.80;99.90;;;;;;5063277;28;20036;-66
2022/07/16 02:41:59;;;;;;;12.75;4.30;;;15.90;99.90;;;;;;5059289;28;20068;-66
2022/07/16 02:44:25;;;;;;;12.20;3.95;;;15.80;99.90;;;;;;5062776;28;20432;-65
2022/07/16 02:46:50;;;;;;;9.85;4.07;;;15.80;99.90;;;;;;5055520;28;20039;-65
2022/07/16 02:49:16;;;;;;;9.57;3.83;;;15.70;99.90;;;;;;5056320;28;20480;-65
2022/07/16 02:51:45;;;;;;;11.13;4.07;;;15.60;99.90;;;;;;5057216;28;20045;-64
2022/07/16 02:54:11;;;;;;;13.93;4.22;;;15.60;99.90;;;;;;5075686;28;20036;-65
2022/07/16 02:56:37;;;;;;;19.13;4.78;;;15.40;99.90;;;;;;5056380;28;20084;-64
2022/07/16 02:59:02;;;;;;;14.00;4.80;;;15.40;99.90;;;;;;5056819;28;20037;-64
2022/07/16 03:01:28;;;;;;;13.73;4.47;;;15.40;99.90;;;;;;5059009;28;20048;-66
2022/07/16 03:03:54;;;;;;;14.38;4.85;;;15.30;99.90;;;;;;5063647;28;20067;-64
2022/07/16 03:06:19;;;;;;;13.38;4.53;;;15.40;99.90;;;;;;5059610;28;20582;-64
2022/07/16 03:08:46;;;;;;;17.38;5.13;;;15.30;99.90;;;;;;5057129;28;20040;-66
2022/07/16 03:11:11;;;;;;;15.60;5.43;;;15.30;99.90;;;;;;5065159;28;20068;-66
2022/07/16 03:13:37;;;;;;;14.68;5.20;;;15.20;99.90;;;;;;5064343;28;20078;-66
2022/07/16 03:16:03;;;;;;;16.42;5.22;;;15.10;99.90;;;;;;5066351;28;20539;-66
2022/07/16 03:18:29;;;;;;;15.82;5.63;;;15.20;99.90;;;;;;5067312;28;20051;-66
2022/07/16 03:20:54;;;;;;;22.92;5.72;;;15.00;99.90;;;;;;5070163;28;20054;-66
2022/07/16 03:23:20;;;;;;;21.20;5.22;;;15.10;99.90;;;;;;5070588;28;20062;-66
2022/07/16 03:26:34;;;;;;;17.42;5.18;;;15.20;99.90;;;;;;5062876;28;20041;-66
2022/07/16 03:29:00;;;;;;;14.15;5.30;;;15.10;99.90;;;;;;5060905;28;20047;-67
2022/07/16 03:31:25;;;;;;;19.52;5.05;;;14.90;99.90;;;;;;5060559;28;20049;-65
2022/07/16 03:33:51;;;;;;;17.67;4.97;;;15.00;99.90;;;;;;5060057;28;20045;-66
2022/07/16 03:36:16;;;;;;;15.13;5.30;;;15.10;99.90;;;;;;5053666;28;20483;-66
2022/07/16 03:38:59;;;;;;;14.15;5.15;;;14.90;99.90;;;;;;5065694;28;20032;-66
2022/07/16 03:41:25;;;;;;;12.13;4.72;;;14.90;99.90;;;;;;5062876;28;20048;-66
2022/07/16 03:43:51;;;;;;;16.70;5.70;;;14.80;99.90;;;;;;5041008;28;20064;-66
2022/07/16 03:46:17;;;;;;;19.20;5.60;;;14.90;99.90;;;;;;5059846;28;20044;-66
2022/07/16 03:48:43;;;;;;;16.88;5.40;;;14.80;99.90;;;;;;5059335;28;20068;-66
2022/07/16 03:51:09;;;;;;;17.48;5.32;;;14.90;99.90;;;;;;5076768;28;20095;-67
2022/07/16 03:53:36;;;;;;;15.57;5.30;;;14.80;99.90;;;;;;5059872;28;20048;-66
2022/07/16 03:56:03;;;;;;;15.48;4.93;;;14.80;99.90;;;;;;5060028;28;20037;-67
2022/07/16 03:58:28;;;;;;;18.17;5.68;;;14.80;99.90;;;;;;5053323;28;20047;-66
2022/07/16 04:00:54;;;;;;;18.52;5.28;;;14.70;99.90;;;;;;5066279;28;20041;-67
2022/07/16 04:03:20;;;;;;;15.68;4.85;;;14.70;99.90;;;;;;5061687;28;20068;-67
2022/07/16 04:05:46;;;;;;;16.38;5.30;;;14.80;99.90;;;;;;5061119;28;20064;-67
2022/07/16 04:08:12;;;;;;;15.68;4.85;;;14.70;99.90;;;;;;5057607;28;20096;-67
2022/07/16 04:10:37;;;;;;;17.45;5.00;;;14.60;99.90;;;;;;5071165;28;20175;-68
2022/07/16 04:13:03;;;;;;;19.45;5.20;;;14.70;99.90;;;;;;5055863;28;20496;-67
2022/07/16 04:15:29;;;;;;;17.67;5.30;;;14.50;99.90;;;;;;5057361;28;20395;-68
2022/07/16 04:17:55;;;;;;;17.83;5.30;;;14.70;99.90;;;;;;5059835;28;20040;-67
2022/07/16 04:20:20;;;;;;;19.63;5.03;;;14.50;99.90;;;;;;5060781;28;20045;-67
2022/07/16 04:22:46;;;;;;;18.00;6.07;;;14.60;99.90;;;;;;5055962;28;20051;-68
2022/07/16 04:25:14;;;;;;;14.63;4.60;;;14.50;99.90;;;;;;5055730;28;20090;-68
2022/07/16 04:27:43;;;;;;;20.23;5.63;;;14.60;99.90;;;;;;5057343;28;20075;-67
2022/07/16 04:30:10;;;;;;;16.38;5.13;;;14.60;99.90;;;;;;5057055;28;20379;-68
2022/07/16 04:32:37;;;;;;;19.63;5.03;;;14.60;99.90;;;;;;5061128;28;20063;-67
2022/07/16 04:35:04;;;;;;;14.85;5.25;;;14.50;99.90;;;;;;5044986;28;20079;-67
2022/07/16 04:37:29;;;;;;;17.00;5.63;;;14.50;99.90;;;;;;5058795;28;20534;-68
2022/07/16 04:39:55;;;;;;;15.88;4.53;;;14.50;99.90;;;;;;5060925;28;20032;-68
2022/07/16 04:42:21;;;;;;;16.30;5.38;;;14.60;99.90;;;;;;5065492;28;20041;-66
2022/07/16 04:44:46;;;;;;;21.92;5.75;;;14.60;99.90;;;;;;5067400;28;20025;-67
2022/07/16 04:47:12;;;;;;;14.15;5.07;;;14.60;99.90;;;;;;5063937;28;20048;-65
2022/07/16 04:49:37;;;;;;;19.25;5.60;;;14.70;99.90;;;;;;5068020;28;20517;-67
2022/07/16 04:52:04;;;;;;;17.00;5.45;;;14.70;99.90;;;;;;5062532;28;20048;-66
2022/07/16 04:54:29;;;;;;;15.50;5.68;;;14.70;99.90;;;;;;5056661;28;20553;-65
2022/07/16 04:56:55;;;;;;;24.15;5.75;;;14.60;99.90;;;;;;5062003;28;20037;-68
2022/07/16 04:59:21;;;;;;;17.52;4.60;;;14.70;99.90;;;;;;5074756;28;20748;-66
2022/07/16 05:01:46;;;;;;;18.17;5.25;;;14.80;99.90;;;;;;5058696;28;20114;-66
2022/07/16 05:04:12;;;;;;;21.60;5.72;;;14.90;99.90;;;;;;5070691;28;20614;-66
2022/07/16 05:06:38;;;;;;;17.15;4.65;;;14.90;99.90;;;;;;5053713;28;20049;-64
2022/07/16 05:09:04;;;;;;;16.05;4.25;;;14.90;99.90;;;;;;5054340;28;20043;-67
2022/07/16 05:11:30;;;;;;;13.07;3.35;;;15.00;99.90;;;;;;5054551;28;20057;-66
2022/07/16 05:13:56;;;;;;;19.55;4.18;;;15.10;99.90;;;;;;5053309;28;20056;-64
2022/07/16 05:16:22;;;;;;;11.90;3.03;;;15.20;99.90;;;;;;5055423;28;20071;-66
2022/07/16 05:18:48;;;;;;;12.48;3.58;;;15.20;99.90;;;;;;5056917;28;20388;-66
2022/07/16 05:21:15;;;;;;;16.08;3.70;;;15.20;99.90;;;;;;5064464;28;20036;-66
2022/07/16 05:23:40;;;;;;;21.90;4.18;;;15.20;99.90;;;;;;5060464;28;20029;-64
2022/07/16 05:26:06;;;;;;;19.02;4.03;;;15.20;99.90;;;;;;5055789;28;20098;-66
2022/07/16 05:28:32;;;;;;;16.80;3.80;;;15.40;99.90;;;;;;5065396;28;20044;-65
2022/07/16 05:30:57;;;;;;;20.45;3.85;;;15.30;99.90;;;;;;5052066;28;20040;-65
2022/07/16 05:33:23;;;;;;;16.98;4.15;;;15.40;99.90;;;;;;5061249;28;20035;-66
2022/07/16 05:35:49;;;;;;;9.27;2.85;;;15.40;99.90;;;;;;5057616;28;20041;-65
2022/07/16 05:38:15;;;;;;;14.45;3.60;;;15.40;99.90;;;;;;5066480;28;20049;-64
2022/07/16 05:40:40;;;;;;;15.27;3.42;;;15.50;99.90;;;;;;5063490;28;20054;-65
2022/07/16 05:43:06;;;;;;;14.50;3.75;;;15.50;99.90;;;;;;5062510;28;20040;-66
2022/07/16 05:45:32;;;;;;;10.75;3.28;;;15.60;99.90;;;;;;5058777;28;20065;-65
2022/07/16 05:47:58;;;;;;;16.63;3.20;;;15.60;99.90;;;;;;5059571;28;20052;-64
2022/07/16 05:50:24;;;;;;;19.38;3.22;;;15.70;99.90;;;;;;5057699;28;20385;-64
2022/07/16 05:52:50;;;;;;;8.68;1.70;;;15.60;99.90;;;;;;5064093;28;20049;-65
2022/07/16 05:55:17;;;;;;;12.93;2.58;;;15.70;99.90;;;;;;5055386;28;20041;-65
2022/07/16 05:57:42;;;;;;;17.05;2.42;;;15.70;99.90;;;;;;5077717;28;20088;-64
2022/07/16 06:00:10;;;;;;;12.93;2.80;;;15.60;99.90;;;;;;5058333;28;20608;-64
2022/07/16 06:02:40;;;;;;;15.60;3.45;;;15.60;99.90;;;;;;5057808;28;20392;-65
2022/07/16 06:05:07;;;;;;;15.77;2.70;;;15.50;99.90;;;;;;5057545;28;20469;-65
2022/07/16 06:07:33;;;;;;;17.23;3.35;;;15.60;99.90;;;;;;5055690;28;20410;-65
2022/07/16 06:09:59;;;;;;;12.85;2.22;;;15.70;99.90;;;;;;5059243;28;20526;-65
2022/07/16 06:12:25;;;;;;;14.38;2.65;;;15.80;99.90;;;;;;5061882;28;20068;-64
2022/07/16 06:14:50;;;;;;;8.48;2.30;;;16.00;99.90;;;;;;5066038;28;20032;-66
2022/07/16 06:17:16;;;;;;;12.50;2.80;;;16.00;99.90;;;;;;5055639;28;20467;-64
2022/07/16 06:19:42;;;;;;;15.05;2.45;;;16.10;99.90;;;;;;5058230;28;20044;-65
2022/07/16 06:22:09;;;;;;;15.77;2.42;;;16.20;99.90;;;;;;5059747;28;20048;-67
2022/07/16 06:24:36;;;;;;;11.90;2.50;;;16.30;99.90;;;;;;5064717;28;20432;-65
2022/07/16 06:27:01;;;;;;;11.88;2.20;;;16.30;99.90;;;;;;5055612;28;20087;-65
2022/07/16 06:29:27;;;;;;;10.35;2.03;;;16.30;99.90;;;;;;5056631;28;20499;-65
2022/07/16 06:31:53;;;;;;;9.73;1.90;;;16.30;99.90;;;;;;5062372;28;20044;-64
2022/07/16 06:34:19;;;;;;;19.00;3.05;;;16.40;99.90;;;;;;5065238;28;20407;-66
2022/07/16 06:36:44;;;;;;;7.22;2.38;;;16.40;99.90;;;;;;5056112;28;20040;-65
2022/07/16 06:39:12;;;;;;;10.18;2.50;;;16.40;99.90;;;;;;5054670;28;20045;-65
2022/07/16 06:41:38;;;;;;;16.05;3.47;;;16.40;99.90;;;;;;5058888;28;20047;-64
2022/07/16 06:44:06;;;;;;;16.35;3.08;;;16.40;99.90;;;;;;5063813;28;20077;-65
2022/07/16 06:46:32;;;;;;;23.77;2.22;;;16.50;99.90;;;;;;5043201;28;20032;-65
2022/07/16 06:48:58;;;;;;;11.93;2.35;;;16.60;99.90;;;;;;5057796;28;20051;-65
2022/07/16 06:51:23;;;;;;;14.02;1.75;;;16.60;99.90;;;;;;5074715;28;20041;-65
2022/07/16 06:53:49;;;;;;;10.90;1.58;;;16.50;99.90;;;;;;5056708;28;20484;-66
2022/07/16 06:56:15;;;;;;;11.30;1.90;;;16.60;99.90;;;;;;5058677;28;20102;-66
2022/07/16 06:58:40;;;;;;;13.35;1.75;;;16.60;99.90;;;;;;5054839;28;20151;-65
2022/07/16 07:01:06;;;;;;;8.07;1.70;;;16.60;99.90;;;;;;5047190;28;20124;-67
2022/07/16 07:03:32;;;;;;;8.45;2.00;;;16.50;99.90;;;;;;5060753;28;20098;-65
2022/07/16 07:05:58;;;;;;;15.20;2.05;;;16.60;99.90;;;;;;5059769;28;20033;-65
2022/07/16 07:08:23;;;;;;;12.35;1.70;;;16.70;99.90;;;;;;5059197;28;20045;-64
2022/07/16 07:10:49;;;;;;;4.35;1.10;;;16.80;99.90;;;;;;5054492;28;20050;-65
2022/07/16 07:13:14;;;;;;;8.27;2.00;;;16.90;99.90;;;;;;5056733;28;20112;-66
2022/07/16 07:15:41;;;;;;;7.18;1.58;;;16.90;99.90;;;;;;5042555;28;20037;-66
2022/07/16 07:18:07;;;;;;;8.93;2.58;;;16.80;99.90;;;;;;5058202;28;20466;-64
2022/07/16 07:20:32;;;;;;;7.55;1.73;;;16.70;99.90;;;;;;5071122;28;20123;-64
2022/07/16 07:22:58;;;;;;;8.27;2.83;;;16.60;99.90;;;;;;5064354;28;20414;-63
2022/07/16 07:25:24;;;;;;;13.82;2.58;;;16.60;99.90;;;;;;5057799;28;20087;-65
2022/07/16 07:27:49;;;;;;;9.65;1.73;;;16.70;99.90;;;;;;5057017;28;20086;-63
2022/07/16 07:30:15;;;;;;;10.32;1.45;;;16.80;99.90;;;;;;5056685;28;20163;-65
2022/07/16 07:32:40;;;;;;;12.63;2.28;;;16.90;99.90;;;;;;5061312;28;20051;-65
2022/07/16 07:35:07;;;;;;;10.52;2.17;;;17.00;99.90;;;;;;5058656;28;20348;-65
2022/07/16 07:37:32;;;;;;;9.55;1.70;;;17.10;99.90;;;;;;5054463;28;20479;-64
2022/07/16 07:39:58;;;;;;;10.60;1.80;;;17.10;99.90;;;;;;5055731;28;20029;-64
2022/07/16 07:42:24;;;;;;;17.33;2.10;;;17.10;99.90;;;;;;5051928;28;20507;-64
2022/07/16 07:44:49;;;;;;;14.82;1.63;;;17.10;99.90;;;;;;5059199;28;20357;-64
2022/07/16 07:47:15;;;;;;;15.60;1.98;;;17.20;99.90;;;;;;5057983;28;20102;-65
2022/07/16 07:49:40;;;;;;;14.70;2.30;;;17.30;99.90;;;;;;5053493;28;20036;-63
2022/07/16 07:52:08;;;;;;;12.90;1.73;;;17.30;99.90;;;;;;5064350;28;20051;-66
2022/07/16 07:54:34;;;;;;;13.50;2.47;;;17.50;99.90;;;;;;5059414;28;20048;-64
2022/07/16 07:57:00;;;;;;;13.88;1.73;;;17.60;99.90;;;;;;5070826;28;20407;-63
2022/07/16 07:59:26;;;;;;;7.82;1.48;;;17.60;99.90;;;;;;5054968;28;20040;-64
2022/07/16 08:01:51;;;;;;;10.82;2.40;;;17.70;99.90;;;;;;5060137;28;20440;-63
2022/07/16 08:04:17;;;;;;;7.47;1.33;;;17.60;99.90;;;;;;5064981;28;20051;-65
2022/07/16 08:06:42;;;;;;;15.73;1.77;;;17.60;99.90;;;;;;5069463;28;20052;-63
2022/07/16 08:09:08;;;;;;;14.90;1.90;;;17.40;99.90;;;;;;5070040;28;20045;-65
2022/07/16 08:11:34;;;;;;;8.40;1.60;;;17.20;99.90;;;;;;5065583;28;20036;-65
2022/07/16 08:13:59;;;;;;;5.32;1.30;;;17.20;99.90;;;;;;5066880;28;20036;-63
2022/07/16 08:16:25;;;;;;;9.52;1.30;;;17.10;99.90;;;;;;5060904;28;20076;-65
2022/07/16 08:18:51;;;;;;;7.60;1.60;;;17.10;99.90;;;;;;5069057;28;20059;-63
2022/07/16 08:21:16;;;;;;;4.88;1.10;;;16.90;99.90;;;;;;5061136;28;20483;-63
2022/07/16 08:26:34;;;;;;;6.55;1.65;;;17.00;99.90;;;;;;5042448;28;20479;-64
2022/07/16 08:28:59;;;;;;;6.45;1.38;;;17.40;99.90;;;;;;5058984;28;20032;-66
2022/07/16 08:31:25;;;;;;;5.60;0.95;;;17.50;99.90;;;;;;5058847;28;20063;-66
2022/07/16 08:33:50;;;;;;;7.18;1.38;;;17.60;99.90;;;;;;5059533;28;20041;-63
2022/07/16 08:36:16;;;;;;;13.25;2.17;;;17.90;99.90;;;;;;5053476;28;20567;-62
2022/07/16 08:38:42;;;;;;;7.75;1.35;;;17.90;99.90;;;;;;5060484;28;20029;-63
2022/07/16 08:41:08;;;;;;;6.38;1.27;;;17.90;99.90;;;;;;5054144;28;20504;-65
2022/07/16 08:43:36;;;;;;;5.43;1.30;;;17.80;99.90;;;;;;5056040;28;20040;-65
2022/07/16 08:46:01;;;;;;;6.93;1.45;;;17.50;99.90;;;;;;5061468;28;20064;-64
2022/07/16 08:48:27;;;;;;;11.48;1.50;;;17.40;99.90;;;;;;5059718;28;20495;-64
2022/07/16 08:50:53;;;;;;;7.95;1.30;;;17.20;99.90;;;;;;5060226;28;20047;-65
2022/07/16 08:53:23;;;;;;;4.22;1.05;;;17.30;99.90;;;;;;5060923;28;20474;-66
2022/07/16 08:55:52;;;;;;;9.43;1.17;;;17.60;99.90;;;;;;5061522;28;20028;-65
2022/07/16 08:58:18;;;;;;;10.05;1.73;;;17.80;99.90;;;;;;5062146;28;20495;-63
2022/07/16 09:00:45;;;;;;;5.78;1.30;;;18.00;99.90;;;;;;5057976;28;20045;-65
2022/07/16 09:03:15;;;;;;;6.18;1.00;;;18.30;99.90;;;;;;5057200;28;20048;-64
2022/07/16 09:05:41;;;;;;;10.15;1.30;;;18.40;99.90;;;;;;5058820;28;20028;-65
2022/07/16 09:08:07;;;;;;;6.43;1.73;;;18.30;99.90;;;;;;5036851;28;20094;-63
2022/07/16 09:10:34;;;;;;;11.77;1.55;;;18.30;99.90;;;;;;5053216;28;20036;-65
2022/07/16 09:13:00;;;;;;;7.07;1.45;;;18.30;99.90;;;;;;5057593;28;20037;-63
2022/07/16 09:15:32;;;;;;;4.93;0.88;;;18.30;99.90;;;;;;5059103;28;20177;-62
2022/07/16 09:18:14;;;;;;;;;;;18.40;99.90;;;;;;5052902;28;20045;-65
2022/07/16 09:20:55;;;;;;;7.78;1.08;;;18.40;99.90;;;;;;5057768;28;19920;-64
2022/07/16 09:23:33;;;;;;;6.47;1.27;;;18.50;99.90;;;;;;5077444;28;20119;-63
2022/07/16 09:26:04;;;;;;;4.40;0.98;;;18.70;99.90;;;;;;5075183;28;20082;-63
2022/07/16 09:28:47;;;;;;;11.45;1.60;;;18.80;99.90;;;;;;5060169;28;20093;-65
2022/07/16 09:31:38;;;;;;;4.60;1.45;;;18.80;99.90;;;;;;5059794;28;20154;-64
2022/07/16 09:34:08;;;;;;;8.10;1.10;;;18.60;99.90;;;;;;5070329;28;20295;-64
2022/07/16 09:36:35;;;;;;;5.85;1.10;;;18.60;99.90;;;;;;5058572;28;20518;-65
2022/07/16 09:39:01;;;;;;;12.45;1.65;;;18.70;99.90;;;;;;5058113;28;20729;-64
2022/07/16 09:41:27;;;;;;;3.85;1.08;;;19.00;99.90;;;;;;5058688;28;20043;-63
2022/07/16 09:43:53;;;;;;;8.27;1.50;;;19.00;99.90;;;;;;5057887;28;20491;-66
2022/07/16 09:46:23;;;;;;;8.73;1.30;;;18.80;99.90;;;;;;5057146;28;20039;-64
2022/07/16 09:48:50;;;;;;;11.10;1.83;;;18.50;99.90;;;;;;5072227;28;20073;-63
2022/07/16 09:51:19;;;;;;;5.43;1.20;;;18.40;99.90;;;;;;5059329;28;20036;-64
2022/07/16 09:53:46;;;;;;;7.82;1.20;;;18.50;99.90;;;;;;5056716;28;20075;-65
2022/07/16 09:56:16;;;;;;;3.47;1.00;;;18.70;99.90;;;;;;5037583;28;20036;-65
2022/07/16 09:58:46;;;;;;;4.15;1.00;;;18.90;99.90;;;;;;5062401;28;20032;-66
2022/07/16 10:01:13;;;;;;;10.98;1.33;;;19.00;99.90;;;;;;5062281;28;20041;-62
2022/07/16 10:03:39;;;;;;;9.15;1.75;;;18.90;99.90;;;;;;5069485;28;20037;-65
2022/07/16 10:06:05;;;;;;;7.90;1.30;;;18.80;99.90;;;;;;5057839;28;20546;-64
2022/07/16 10:08:32;;;;;;;9.60;1.50;;;18.60;99.90;;;;;;5057052;28;20044;-64
2022/07/16 10:10:57;;;;;;;6.30;1.40;;;18.40;99.90;;;;;;5060459;28;20056;-62
2022/07/16 10:13:26;;;;;;;10.38;1.58;;;18.50;99.90;;;;;;5059777;28;20408;-65
2022/07/16 10:15:53;;;;;;;4.88;1.13;;;18.80;99.90;;;;;;5060580;28;20095;-64
2022/07/16 10:18:37;;;;;;;6.07;1.15;;;19.10;99.90;;;;;;5058061;28;20399;-66
2022/07/16 10:21:09;;;;;;;5.10;1.20;;;19.30;99.90;;;;;;5057884;28;20029;-68
2022/07/16 10:23:36;;;;;;;5.70;1.15;;;19.20;99.90;;;;;;5059720;28;20029;-65
2022/07/16 10:26:13;;;;;;;10.20;1.20;;;19.10;99.90;;;;;;5058835;28;20041;-66
2022/07/16 10:28:49;;;;;;;11.55;2.22;;;18.90;99.90;;;;;;5065382;28;20195;-63
2022/07/16 10:32:27;;;;;;;6.28;1.20;;;18.80;99.90;;;;;;5059756;28;20028;-65
2022/07/16 10:34:31;;;;;;;7.65;1.38;;;18.90;99.90;;;;;;5058711;28;20143;-64
2022/07/16 10:36:56;;;;;;;8.27;1.50;;;19.10;99.90;;;;;;5062275;28;20049;-63
2022/07/16 10:39:25;;;;;;;11.30;1.40;;;19.30;99.90;;;;;;5061031;28;20480;-65
2022/07/16 10:41:58;;;;;;;5.65;1.40;;;19.40;99.90;;;;;;5060287;28;20082;-65
2022/07/16 10:44:44;;;;;;;5.90;1.48;;;19.30;99.90;;;;;;5063286;28;20036;-64
2022/07/16 10:47:11;;;;;;;9.50;1.50;;;19.30;99.90;;;;;;5078177;28;20119;-66
2022/07/16 10:49:37;;;;;;;11.05;1.70;;;19.50;99.90;;;;;;5058578;28;20036;-65
2022/07/16 10:52:08;;;;;;;5.60;1.42;;;19.60;99.90;;;;;;5058285;28;20463;-65
2022/07/16 10:54:37;;;;;;;9.73;1.60;;;19.70;99.90;;;;;;5053821;28;20048;-63
2022/07/16 10:57:10;;;;;;;7.65;1.60;;;19.70;99.90;;;;;;5058233;28;20416;-63
2022/07/16 10:59:39;;;;;;;9.05;1.35;;;19.50;99.90;;;;;;5058955;28;20406;-64
2022/07/16 11:02:07;;;;;;;9.85;1.50;;;19.30;99.70;;;;;;5056325;28;20094;-66
2022/07/16 11:04:37;;;;;;;7.70;1.20;;;19.20;99.90;;;;;;5056522;28;20144;-65
2022/07/16 11:07:07;;;;;;;11.13;1.80;;;19.10;99.90;;;;;;5056588;28;20070;-65
2022/07/16 11:09:34;;;;;;;10.75;2.10;;;19.10;99.90;;;;;;5060078;28;20579;-65
2022/07/16 11:12:10;;;;;;;12.98;2.05;;;19.30;99.90;;;;;;5058790;28;20418;-65
2022/07/16 11:14:37;;;;;;;5.78;1.70;;;19.50;99.90;;;;;;5060778;28;20579;-64
2022/07/16 11:17:03;;;;;;;8.57;1.25;;;19.80;99.90;;;;;;5061888;28;20422;-64
2022/07/16 11:19:29;;;;;;;9.65;1.50;;;20.00;99.90;;;;;;5056188;28;20032;-64
2022/07/16 11:21:57;;;;;;;5.43;1.63;;;20.20;99.90;;;;;;5061762;28;20036;-64
2022/07/16 11:24:25;;;;;;;10.40;1.67;;;20.20;99.90;;;;;;5060635;28;20032;-63
2022/07/16 11:26:51;;;;;;;11.02;1.83;;;20.10;99.90;;;;;;5056281;28;20494;-64
2022/07/16 11:29:19;;;;;;;10.70;1.80;;;20.10;99.90;;;;;;5075230;28;20106;-65
2022/07/16 11:31:46;;;;;;;7.97;1.55;;;20.00;99.90;;;;;;5078867;28;20048;-67
2022/07/16 11:34:11;;;;;;;6.45;1.20;;;20.20;99.90;;;;;;5055035;28;20474;-64
2022/07/16 11:36:40;;;;;;;10.05;1.50;;;20.20;99.90;;;;;;5058245;28;20144;-64
2022/07/16 11:39:14;;;;;;;4.82;1.38;;;20.00;99.90;;;;;;5072730;28;20040;-65
2022/07/16 11:41:43;;;;;;;8.02;1.75;;;19.90;99.80;;;;;;5071328;28;20052;-64
2022/07/16 11:44:25;;;;;;;6.80;1.55;;;19.80;99.90;;;;;;5070620;28;20051;-64
2022/07/16 11:47:02;;;;;;;10.23;1.75;;;19.60;99.90;;;;;;5072931;28;20178;-64
2022/07/16 11:49:33;;;;;;;10.00;1.77;;;19.70;99.90;;;;;;5058885;28;20036;-64
2022/07/16 11:52:03;;;;;;;9.93;1.70;;;19.80;99.90;;;;;;5058182;28;20041;-64
2022/07/16 11:54:33;;;;;;;10.25;1.75;;;20.00;99.90;;;;;;5056382;28;20048;-63
2022/07/16 11:56:59;;;;;;;14.10;1.55;;;20.00;99.90;;;;;;5057295;28;20044;-64
2022/07/16 11:59:27;;;;;;;12.02;2.15;;;20.10;99.90;;;;;;5056098;28;20037;-66
2022/07/16 12:02:13;;;;;;;13.13;1.85;;;20.20;99.90;;;;;;5061500;28;20028;-64
2022/07/16 12:04:42;;;;;;;11.85;1.67;;;20.30;99.60;;;;;;5054454;28;20044;-65
2022/07/16 12:07:14;;;;;;;9.57;1.60;;;20.20;99.90;;;;;;5060714;28;20394;-65
2022/07/16 12:09:42;;;;;;;13.55;2.03;;;20.10;99.90;;;;;;5054906;28;20380;-64
2022/07/16 12:12:14;;;;;;;12.70;1.77;;;20.40;99.90;;;;;;5061486;28;20083;-66
2022/07/16 12:14:50;;;;;;;24.42;3.47;;;20.10;99.90;;;;;;5054830;28;20044;-64
2022/07/16 12:17:39;;;;;;;15.25;1.90;;;19.70;99.90;;;;;;5061537;28;20491;-63
2022/07/16 12:20:17;;;;;;;7.30;1.65;;;19.70;99.90;;;;;;5056183;28;20040;-64
2022/07/16 12:23:06;;;;;;;5.97;1.45;;;19.80;99.90;;;;;;5070095;28;20129;-67
2022/07/16 12:25:31;;;;;;;12.40;2.28;;;19.80;99.90;;;;;;5054501;28;20532;-65
2022/07/16 12:28:19;;;;;;;8.32;1.70;;;19.60;99.90;;;;;;5072174;28;20075;-64
2022/07/16 12:30:54;;;;;;;7.90;1.48;;;19.40;99.90;;;;;;5054392;28;20064;-63
2022/07/16 12:33:23;;;;;;;12.38;1.95;;;19.40;99.90;;;;;;5061003;28;20078;-64
2022/07/16 12:35:58;;;;;;;8.93;1.65;;;19.70;99.90;;;;;;5068446;28;20093;-63
2022/07/16 12:38:58;;;;;;;10.20;1.60;;;19.90;99.90;;;;;;5068642;28;20536;-62
2022/07/16 12:41:43;;;;;;;8.13;1.75;;;20.10;99.90;;;;;;5068522;28;20449;-65
2022/07/16 12:44:16;;;;;;;8.68;2.05;;;20.20;99.90;;;;;;5069638;28;20044;-64
2022/07/16 12:46:48;;;;;;;6.97;1.42;;;20.20;99.90;;;;;;5066513;28;20479;-66
2022/07/16 12:49:17;;;;;;;12.20;1.73;;;20.40;99.90;;;;;;5064941;28;20049;-64